Time;durP1;ratioP1;P1;durP2;ratioP2;P2;SDS_P1;SDS_P2;PMS_P1;PMS_P2;Temp;Humidity;BMP_temperature;BMP_pressure;BME280_temperature;BME280_humidity;BME280_pressure;Samples;Min_cycle;Max_cycle;Signal;HPM_P1;HPM_P2
2021/10/02 00:37:32;;;;;;;3.40;3.10;;;14.70;99.90;;;;;;4934003;29;20079;-81
2021/10/02 00:45:09;;;;;;;5.80;3.53;;;14.60;99.90;;;;;;4937567;29;20038;-82
2021/10/02 00:47:35;;;;;;;5.43;3.85;;;14.60;99.90;;;;;;4935653;29;20485;-81
2021/10/02 00:50:04;;;;;;;6.75;3.72;;;14.60;99.90;;;;;;4937284;29;20095;-81
2021/10/02 00:52:30;;;;;;;5.35;3.65;;;14.60;99.90;;;;;;4937521;29;20451;-81
2021/10/02 00:54:56;;;;;;;7.45;3.92;;;14.70;99.90;;;;;;4934814;29;20047;-81
2021/10/02 00:57:21;;;;;;;5.50;4.80;;;14.70;99.90;;;;;;4936124;29;20480;-81
2021/10/02 00:59:48;;;;;;;6.18;3.97;;;14.70;99.90;;;;;;4935542;29;20035;-81
2021/10/02 01:02:36;;;;;;;6.82;4.60;;;14.70;99.90;;;;;;4935428;29;20076;-81
2021/10/02 01:05:20;;;;;;;6.00;4.43;;;14.70;99.90;;;;;;4936944;29;20508;-81
2021/10/02 01:08:19;;;;;;;4.95;4.22;;;14.70;99.90;;;;;;4935629;29;20040;-81
2021/10/02 01:11:03;;;;;;;5.75;4.10;;;14.70;99.90;;;;;;4935848;29;20035;-81
2021/10/02 01:13:57;;;;;;;4.80;4.30;;;14.70;99.90;;;;;;4936004;29;20028;-81
2021/10/02 01:16:34;;;;;;;7.53;5.78;;;14.70;99.90;;;;;;4936771;29;20024;-81
2021/10/02 01:19:05;;;;;;;9.38;5.53;;;14.70;99.90;;;;;;4936606;29;20055;-81
2021/10/02 01:22:09;;;;;;;8.90;6.43;;;14.60;99.90;;;;;;4937330;29;20050;-80
2021/10/02 01:25:01;;;;;;;7.43;5.22;;;14.60;99.90;;;;;;4935653;29;20496;-81
2021/10/02 01:27:50;;;;;;;6.53;5.22;;;14.60;99.90;;;;;;4935501;29;20071;-80
2021/10/02 01:30:33;;;;;;;6.30;5.80;;;14.60;99.90;;;;;;4934988;29;20067;-82
2021/10/02 01:33:07;;;;;;;11.02;5.72;;;14.70;99.90;;;;;;4934919;29;20055;-80
2021/10/02 01:49:43;;;;;;;8.02;6.13;;;14.60;99.90;;;;;;4936870;29;20059;-80
2021/10/02 01:52:10;;;;;;;11.70;6.32;;;14.70;99.90;;;;;;4934319;29;20039;-80
2021/10/02 01:54:37;;;;;;;6.38;5.78;;;14.60;99.90;;;;;;4934397;29;20030;-80
2021/10/02 01:57:05;;;;;;;5.93;5.43;;;14.70;99.90;;;;;;4934225;29;20066;-81
2021/10/02 01:59:33;;;;;;;6.93;5.82;;;14.70;99.90;;;;;;4935025;29;20027;-81
2021/10/02 02:02:15;;;;;;;8.68;5.68;;;14.70;99.90;;;;;;4933688;29;20149;-81
2021/10/02 02:04:42;;;;;;;6.55;5.40;;;14.70;99.90;;;;;;4907493;29;20024;-80
2021/10/02 02:07:08;;;;;;;7.25;6.55;;;14.70;99.90;;;;;;4930723;29;20120;-81
2021/10/02 02:09:39;;;;;;;12.68;5.95;;;14.70;99.90;;;;;;4933550;29;20019;-81
2021/10/02 02:12:13;;;;;;;7.40;5.78;;;14.70;99.90;;;;;;4933382;29;20560;-81
2021/10/02 02:14:41;;;;;;;11.77;6.60;;;14.70;99.90;;;;;;4919233;29;20066;-81
2021/10/02 02:17:08;;;;;;;6.90;5.85;;;14.80;99.90;;;;;;4935521;29;20484;-82
2021/10/02 02:19:34;;;;;;;6.63;6.03;;;14.70;99.90;;;;;;4918313;29;20030;-82
2021/10/02 02:22:02;;;;;;;8.77;6.47;;;14.70;99.90;;;;;;4934013;29;20023;-81
2021/10/02 02:24:28;;;;;;;11.25;6.80;;;14.70;99.90;;;;;;4919292;29;20469;-81
2021/10/02 02:26:54;;;;;;;7.38;6.18;;;14.70;99.90;;;;;;4934580;29;20066;-81
2021/10/02 02:29:20;;;;;;;6.13;5.57;;;14.70;99.90;;;;;;4934215;29;20459;-81
2021/10/02 02:31:46;;;;;;;7.05;6.13;;;14.70;99.90;;;;;;4935235;29;20040;-81
2021/10/02 02:34:12;;;;;;;8.15;6.35;;;14.70;99.90;;;;;;4933514;29;20055;-81
2021/10/02 02:36:38;;;;;;;7.95;7.10;;;14.70;99.90;;;;;;4935234;29;20027;-81
2021/10/02 02:39:04;;;;;;;8.13;5.50;;;14.70;99.90;;;;;;4933769;29;20031;-81
2021/10/02 02:41:30;;;;;;;8.95;6.18;;;14.70;99.90;;;;;;4917994;29;20036;-82
2021/10/02 02:43:56;;;;;;;7.97;6.07;;;14.70;99.90;;;;;;4917804;29;20481;-81
2021/10/02 02:46:29;;;;;;;9.00;6.13;;;14.70;99.90;;;;;;4934663;29;20499;-81
2021/10/02 02:49:22;;;;;;;15.68;6.28;;;14.70;99.90;;;;;;4933779;29;20031;-81
2021/10/02 02:52:00;;;;;;;6.85;6.18;;;14.70;99.90;;;;;;4935109;29;20023;-82
2021/10/02 02:54:44;;;;;;;8.82;6.85;;;14.70;99.90;;;;;;4933475;29;20396;-81
2021/10/02 02:57:14;;;;;;;7.07;6.38;;;14.80;99.90;;;;;;4933534;29;20539;-81
2021/10/02 02:59:51;;;;;;;9.48;6.45;;;14.70;99.90;;;;;;4933807;29;20020;-81
2021/10/02 03:02:20;;;;;;;8.23;7.28;;;14.70;99.90;;;;;;4933155;29;20032;-81
2021/10/02 03:04:49;;;;;;;10.00;6.07;;;14.70;99.90;;;;;;4933701;29;20028;-81
2021/10/02 03:07:19;;;;;;;7.32;6.43;;;14.70;99.90;;;;;;4933359;29;20036;-81
2021/10/02 03:09:52;;;;;;;7.63;5.77;;;14.70;99.90;;;;;;4934537;29;20032;-82
2021/10/02 03:12:41;;;;;;;;;;;14.70;99.90;;;;;;4934214;29;20298;-83
2021/10/02 03:15:10;;;;;;;6.80;6.00;;;14.70;99.90;;;;;;4917199;29;20375;-82
2021/10/02 03:17:37;;;;;;;7.43;6.03;;;14.70;99.90;;;;;;4933798;29;20060;-82
2021/10/02 03:20:06;;;;;;;7.38;6.68;;;14.70;99.90;;;;;;4933066;29;20392;-82
2021/10/02 03:22:32;;;;;;;7.57;6.35;;;14.70;99.90;;;;;;4934335;29;20083;-82
2021/10/02 03:24:59;;;;;;;8.65;6.63;;;14.70;99.90;;;;;;4933000;29;20051;-81
2021/10/02 03:27:27;;;;;;;9.02;6.18;;;14.70;99.90;;;;;;4934979;29;20071;-81
2021/10/02 03:29:54;;;;;;;8.35;6.90;;;14.70;99.90;;;;;;4932458;29;20118;-80
2021/10/02 03:32:20;;;;;;;7.43;6.65;;;14.70;99.90;;;;;;4934835;29;20023;-81
2021/10/02 03:34:46;;;;;;;8.18;7.32;;;14.60;99.90;;;;;;4933171;29;20028;-81
2021/10/02 03:37:12;;;;;;;8.95;7.80;;;14.60;99.90;;;;;;4933371;29;20038;-81
2021/10/02 03:39:37;;;;;;;8.38;7.53;;;14.60;99.90;;;;;;4933140;29;20046;-81
2021/10/02 03:42:08;;;;;;;7.97;7.18;;;14.70;99.90;;;;;;4932755;29;20024;-81
2021/10/02 03:44:34;;;;;;;8.82;7.93;;;14.70;99.90;;;;;;4932937;29;20021;-82
2021/10/02 03:47:00;;;;;;;10.07;8.10;;;14.70;99.90;;;;;;4932592;29;20035;-82
2021/10/02 03:49:26;;;;;;;9.68;7.32;;;14.70;99.90;;;;;;4933158;29;20031;-81
2021/10/02 03:51:51;;;;;;;9.63;7.55;;;14.70;99.90;;;;;;4932427;29;20513;-81
2021/10/02 03:54:17;;;;;;;9.82;6.95;;;14.60;99.90;;;;;;4932882;29;20488;-82
2021/10/02 03:56:43;;;;;;;8.05;7.25;;;14.60;99.90;;;;;;4932346;29;20078;-82
2021/10/02 03:59:09;;;;;;;8.65;7.22;;;14.60;99.90;;;;;;4933642;29;20035;-82
2021/10/02 04:01:34;;;;;;;8.27;7.40;;;14.60;99.90;;;;;;4933188;29;20028;-81
2021/10/02 04:04:00;;;;;;;8.15;7.32;;;14.60;99.90;;;;;;4931914;29;20036;-81
2021/10/02 04:06:29;;;;;;;7.80;7.00;;;14.60;99.90;;;;;;4934382;29;20024;-83
2021/10/02 04:08:57;;;;;;;9.70;8.70;;;14.60;99.90;;;;;;4916694;29;20051;-82
2021/10/02 04:11:22;;;;;;;9.85;8.00;;;14.60;99.90;;;;;;4916877;29;20130;-82
2021/10/02 04:13:52;;;;;;;9.77;8.05;;;14.60;99.90;;;;;;4934211;29;20030;-82
2021/10/02 04:16:17;;;;;;;10.23;8.38;;;14.60;99.90;;;;;;4916857;29;20075;-82
2021/10/02 04:18:43;;;;;;;8.68;7.80;;;14.50;99.90;;;;;;4934965;29;20023;-83
2021/10/02 04:21:09;;;;;;;9.90;8.80;;;14.50;99.90;;;;;;4936715;29;20437;-82
2021/10/02 04:23:35;;;;;;;14.63;9.18;;;14.50;99.90;;;;;;4938337;29;20024;-82
2021/10/02 04:26:00;;;;;;;13.57;9.30;;;14.50;99.90;;;;;;4935686;29;20066;-82
2021/10/02 04:28:26;;;;;;;8.95;8.15;;;14.40;99.90;;;;;;4937485;29;20091;-82
2021/10/02 04:30:51;;;;;;;9.77;8.65;;;14.40;99.90;;;;;;4920581;29;20027;-82
2021/10/02 04:33:21;;;;;;;10.65;9.65;;;14.40;99.90;;;;;;4936980;29;20039;-81
2021/10/02 04:35:47;;;;;;;10.23;9.07;;;14.50;99.90;;;;;;4920738;29;20028;-82
2021/10/02 04:38:13;;;;;;;8.10;7.35;;;14.50;99.90;;;;;;4937623;29;20082;-82
2021/10/02 04:40:38;;;;;;;9.13;8.32;;;14.50;99.90;;;;;;4935674;29;20016;-82
2021/10/02 04:43:04;;;;;;;11.38;9.48;;;14.50;99.90;;;;;;4936068;29;20476;-81
2021/10/02 04:45:29;;;;;;;10.48;9.40;;;14.50;99.90;;;;;;4936476;29;20038;-82
2021/10/02 04:47:56;;;;;;;9.88;8.93;;;14.50;99.90;;;;;;4919188;29;20044;-82
2021/10/02 04:50:21;;;;;;;11.57;10.13;;;14.50;99.90;;;;;;4936414;29;20053;-82
2021/10/02 04:52:47;;;;;;;10.38;9.35;;;14.50;99.90;;;;;;4936041;29;20124;-82
2021/10/02 04:55:12;;;;;;;12.52;10.40;;;14.50;99.90;;;;;;4919417;29;20043;-82
2021/10/02 04:57:38;;;;;;;11.48;9.80;;;14.50;99.90;;;;;;4937271;29;20412;-82
2021/10/02 05:00:05;;;;;;;13.88;9.10;;;14.50;99.90;;;;;;4919195;29;20119;-82
2021/10/02 05:02:37;;;;;;;10.75;9.65;;;14.50;99.90;;;;;;4937335;29;20031;-82
2021/10/02 05:05:03;;;;;;;12.38;10.35;;;14.40;99.90;;;;;;4935699;29;20031;-82
2021/10/02 05:07:53;;;;;;;12.48;10.13;;;14.40;99.90;;;;;;4936247;29;20492;-82
2021/10/02 05:10:19;;;;;;;10.32;9.32;;;14.40;99.90;;;;;;4936080;29;20036;-79
2021/10/02 05:12:45;;;;;;;9.88;8.90;;;14.40;99.90;;;;;;4936844;29;20111;-83
2021/10/02 05:15:11;;;;;;;10.15;9.05;;;14.40;99.90;;;;;;4936091;29;20028;-84
2021/10/02 05:17:36;;;;;;;9.45;8.55;;;14.40;99.90;;;;;;4935614;29;20485;-83
2021/10/02 05:20:04;;;;;;;10.68;9.45;;;14.40;99.90;;;;;;4936588;29;20024;-83
2021/10/02 05:22:29;;;;;;;11.70;9.50;;;14.40;99.90;;;;;;4935157;29;20417;-82
2021/10/02 05:24:55;;;;;;;10.68;9.55;;;14.40;99.90;;;;;;4935309;29;20039;-82
2021/10/02 05:27:20;;;;;;;10.75;9.50;;;14.30;99.90;;;;;;4935933;29;20035;-82
2021/10/02 05:29:46;;;;;;;9.63;8.60;;;14.30;99.90;;;;;;4933113;29;20039;-85
2021/10/02 05:32:13;;;;;;;10.15;9.15;;;14.30;99.90;;;;;;4935292;29;20384;-80
2021/10/02 05:34:39;;;;;;;11.10;8.30;;;14.20;99.90;;;;;;4929708;29;20062;-81
2021/10/02 05:37:05;;;;;;;9.65;8.65;;;14.10;99.90;;;;;;4924098;29;20055;-80
2021/10/02 05:39:31;;;;;;;11.25;7.85;;;14.10;99.90;;;;;;4916434;29;20139;-80
2021/10/02 05:41:56;;;;;;;8.63;7.82;;;14.10;99.90;;;;;;4915646;29;20129;-80
2021/10/02 05:44:22;;;;;;;10.82;8.25;;;14.10;99.90;;;;;;4915919;29;20032;-81
2021/10/02 05:46:47;;;;;;;9.40;8.27;;;14.10;99.90;;;;;;4916004;29;20118;-80
2021/10/02 05:49:14;;;;;;;9.18;7.90;;;14.10;99.90;;;;;;4916685;29;20047;-80
2021/10/02 05:51:39;;;;;;;7.75;6.95;;;14.10;99.90;;;;;;4931974;29;20020;-81
2021/10/02 05:54:05;;;;;;;8.38;7.28;;;14.10;99.90;;;;;;4915614;29;20121;-78
2021/10/02 05:56:31;;;;;;;7.78;7.07;;;14.00;99.90;;;;;;4915815;29;20027;-85
2021/10/02 05:58:56;;;;;;;7.85;7.07;;;14.00;99.90;;;;;;4930346;29;20077;-80
2021/10/02 06:01:22;;;;;;;9.02;7.32;;;13.90;99.90;;;;;;4916303;29;20028;-81
2021/10/02 06:03:47;;;;;;;6.88;5.95;;;13.80;99.90;;;;;;4913490;29;20029;-81
2021/10/02 06:06:14;;;;;;;7.13;6.43;;;13.80;99.90;;;;;;4915313;29;20032;-80
2021/10/02 06:08:40;;;;;;;8.52;7.07;;;13.80;99.90;;;;;;4916785;29;20485;-81
2021/10/02 06:11:05;;;;;;;6.35;5.60;;;13.70;99.90;;;;;;4916126;29;20068;-81
2021/10/02 06:13:33;;;;;;;7.78;6.82;;;13.70;99.90;;;;;;4925164;29;20102;-81
2021/10/02 06:16:02;;;;;;;8.77;7.25;;;13.70;99.90;;;;;;4934506;29;20425;-80
2021/10/02 06:18:28;;;;;;;7.78;6.38;;;13.60;99.90;;;;;;4927574;29;20537;-82
2021/10/02 06:20:54;;;;;;;8.00;6.50;;;13.60;99.90;;;;;;4933487;29;20508;-81
2021/10/02 06:23:22;;;;;;;7.10;6.47;;;13.60;99.90;;;;;;4934103;29;20031;-80
2021/10/02 06:25:48;;;;;;;8.75;7.05;;;13.60;99.90;;;;;;4934811;29;20027;-82
2021/10/02 06:28:13;;;;;;;8.82;7.03;;;13.60;99.90;;;;;;4932963;29;20075;-81
2021/10/02 06:30:39;;;;;;;7.50;6.80;;;13.60;99.90;;;;;;4934941;29;20023;-84
2021/10/02 06:33:05;;;;;;;7.03;6.32;;;13.60;99.90;;;;;;4932386;29;20377;-80
2021/10/02 06:35:30;;;;;;;7.00;6.22;;;13.60;99.90;;;;;;4933351;29;20464;-81
2021/10/02 06:37:58;;;;;;;9.68;6.43;;;13.70;99.90;;;;;;4932006;29;20150;-86
2021/10/02 06:40:24;;;;;;;9.90;5.93;;;13.60;99.90;;;;;;4933731;29;20023;-82
2021/10/02 06:42:50;;;;;;;9.85;6.07;;;13.60;99.90;;;;;;4933440;29;20079;-84
2021/10/02 06:45:16;;;;;;;9.15;7.20;;;13.70;99.90;;;;;;4934036;29;20158;-79
2021/10/02 06:47:42;;;;;;;9.52;7.28;;;13.60;99.90;;;;;;4931841;29;20126;-77
2021/10/02 06:50:08;;;;;;;7.68;6.97;;;13.70;99.90;;;;;;4933916;29;20532;-83
2021/10/02 06:52:36;;;;;;;7.53;6.85;;;13.70;99.90;;;;;;4933746;29;20031;-90
2021/10/02 06:55:06;;;;;;;8.20;6.63;;;13.70;99.90;;;;;;4918340;29;20020;-89
2021/10/02 06:57:32;;;;;;;7.97;7.18;;;13.70;99.90;;;;;;4933569;29;20028;-86
2021/10/02 06:59:57;;;;;;;12.45;7.25;;;13.70;99.90;;;;;;4934035;29;20099;-80
2021/10/02 07:02:23;;;;;;;9.02;7.10;;;13.70;99.90;;;;;;4933894;29;20500;-81
2021/10/02 07:04:49;;;;;;;14.35;8.35;;;13.70;99.90;;;;;;4933874;29;20174;-82
2021/10/02 07:07:15;;;;;;;8.80;7.53;;;13.80;99.90;;;;;;4931622;29;20038;-82
2021/10/02 07:09:41;;;;;;;8.15;7.30;;;13.80;99.90;;;;;;4932920;29;20055;-79
2021/10/02 07:12:07;;;;;;;9.02;7.75;;;13.80;99.90;;;;;;4932916;29;20067;-81
2021/10/02 07:14:32;;;;;;;11.85;8.05;;;13.90;99.90;;;;;;4944902;29;20475;-80
2021/10/02 07:16:58;;;;;;;10.55;9.45;;;14.00;99.90;;;;;;4947724;29;20090;-84
2021/10/02 07:19:24;;;;;;;12.23;7.85;;;14.00;99.90;;;;;;4934450;29;20020;-87
2021/10/02 07:21:50;;;;;;;9.70;7.78;;;14.10;99.90;;;;;;4932723;29;20024;-79
2021/10/02 07:24:16;;;;;;;9.02;7.80;;;14.10;99.90;;;;;;4933207;29;20031;-83
2021/10/02 07:26:43;;;;;;;11.07;9.07;;;14.20;99.90;;;;;;4932632;29;20102;-80
2021/10/02 07:29:09;;;;;;;9.00;7.85;;;14.30;99.90;;;;;;4930254;29;20052;-81
2021/10/02 07:31:34;;;;;;;10.27;8.15;;;14.40;99.90;;;;;;4932900;29;20511;-78
2021/10/02 07:34:00;;;;;;;10.25;7.72;;;14.40;99.90;;;;;;4932692;29;20055;-84
2021/10/02 07:36:26;;;;;;;9.30;7.53;;;14.40;99.90;;;;;;4932401;29;20488;-83
2021/10/02 07:38:51;;;;;;;7.53;6.80;;;14.50;99.90;;;;;;4932170;29;20059;-81
2021/10/02 07:41:18;;;;;;;8.38;7.60;;;14.50;99.90;;;;;;4948123;29;20115;-83
2021/10/02 07:43:59;;;;;;;10.88;8.43;;;14.60;99.90;;;;;;4933399;29;20400;-83
2021/10/02 07:46:26;;;;;;;10.68;8.38;;;14.60;99.90;;;;;;4933058;29;20118;-79
2021/10/02 07:48:53;;;;;;;10.02;9.05;;;14.70;99.90;;;;;;4933191;29;20552;-84
2021/10/02 07:51:20;;;;;;;9.95;8.30;;;14.60;99.90;;;;;;4933766;29;20028;-84
2021/10/02 07:53:46;;;;;;;9.20;8.00;;;14.70;99.90;;;;;;4931723;29;20024;-87
2021/10/02 07:56:12;;;;;;;8.85;8.02;;;14.70;99.90;;;;;;4940163;28;20020;-81
2021/10/02 07:58:38;;;;;;;11.55;9.30;;;14.70;99.90;;;;;;4932728;29;20039;-80
2021/10/02 08:01:03;;;;;;;8.57;7.72;;;14.80;99.90;;;;;;4931241;29;20369;-83
2021/10/02 08:03:29;;;;;;;13.18;8.48;;;14.80;99.90;;;;;;4933780;29;20489;-90
2021/10/02 08:05:55;;;;;;;11.27;8.48;;;14.80;99.90;;;;;;4933984;29;20042;-82
2021/10/02 08:08:23;;;;;;;12.05;8.82;;;14.90;99.90;;;;;;4933232;29;20032;-85
2021/10/02 08:10:57;;;;;;;9.82;8.52;;;14.90;99.90;;;;;;4931245;29;20015;-83
2021/10/02 08:20:51;;;;;;;11.00;8.60;;;14.90;99.90;;;;;;4936408;29;20059;-82
2021/10/02 08:31:33;;;;;;;9.38;8.10;;;14.90;99.90;;;;;;4885269;29;20052;-82
2021/10/02 08:48:41;;;;;;;7.40;6.63;;;15.10;99.90;;;;;;4856761;29;20057;-81
2021/10/02 09:04:53;;;;;;;5.50;4.97;;;15.10;99.90;;;;;;4801797;29;20044;-82
2021/10/02 09:07:20;;;;;;;5.18;4.53;;;15.20;99.90;;;;;;4825403;29;20124;-78
2021/10/02 09:09:47;;;;;;;6.05;4.72;;;15.20;99.90;;;;;;4866483;29;20137;-79
2021/10/02 09:12:19;;;;;;;8.18;5.82;;;15.20;99.90;;;;;;4879671;29;20421;-79
2021/10/02 09:14:45;;;;;;;6.85;5.60;;;15.20;99.90;;;;;;4880911;29;20040;-79
2021/10/02 09:17:11;;;;;;;9.20;5.50;;;15.30;99.90;;;;;;4880084;29;20037;-78
2021/10/02 09:19:36;;;;;;;9.95;5.60;;;15.40;99.90;;;;;;4883719;29;20131;-78
2021/10/02 09:22:08;;;;;;;8.48;5.03;;;15.50;99.90;;;;;;4896406;29;20068;-77
2021/10/02 09:24:40;;;;;;;6.28;4.57;;;15.60;99.90;;;;;;4899240;29;20028;-81
2021/10/02 09:27:19;;;;;;;6.68;4.70;;;15.70;99.90;;;;;;4895563;29;20108;-80
2021/10/02 09:29:54;;;;;;;5.03;4.35;;;15.80;99.90;;;;;;4893320;29;20037;-80
2021/10/02 09:32:27;;;;;;;6.03;4.88;;;15.90;99.90;;;;;;4933228;29;20523;-80
2021/10/02 09:34:56;;;;;;;8.73;5.30;;;16.00;99.90;;;;;;4932470;29;20067;-81
2021/10/02 09:37:29;;;;;;;5.90;4.28;;;15.90;99.90;;;;;;4933660;29;20028;-81
2021/10/02 09:39:58;;;;;;;7.50;5.13;;;15.90;99.90;;;;;;4933213;29;20080;-82
2021/10/02 09:42:32;;;;;;;6.75;4.93;;;15.90;99.90;;;;;;4928669;29;20024;-80
2021/10/02 09:45:01;;;;;;;6.68;4.75;;;15.90;99.90;;;;;;4931603;29;20378;-79
2021/10/02 09:47:27;;;;;;;7.45;4.90;;;16.00;99.90;;;;;;4935332;29;20114;-81
2021/10/02 09:49:53;;;;;;;7.65;4.70;;;16.10;99.90;;;;;;4944979;29;20110;-82
2021/10/02 09:52:25;;;;;;;6.75;4.78;;;16.20;99.90;;;;;;4950255;29;20055;-79
2021/10/02 09:54:51;;;;;;;4.35;3.67;;;16.30;99.90;;;;;;4934425;29;20019;-83
2021/10/02 09:57:16;;;;;;;8.52;4.15;;;16.40;99.90;;;;;;4932772;29;20047;-84
2021/10/02 09:59:42;;;;;;;5.22;3.65;;;16.40;99.90;;;;;;4934431;29;20031;-83
2021/10/02 10:02:16;;;;;;;8.52;3.88;;;16.50;99.90;;;;;;4935150;29;20114;-85
2021/10/02 10:04:52;;;;;;;6.00;3.20;;;16.40;99.90;;;;;;4935042;29;20047;-80
2021/10/02 10:07:19;;;;;;;5.47;3.63;;;16.40;99.90;;;;;;4935489;29;20035;-85
2021/10/02 10:10:06;;;;;;;4.07;3.10;;;16.40;99.90;;;;;;4933148;29;20706;-84
2021/10/02 10:12:33;;;;;;;5.88;3.42;;;16.50;99.90;;;;;;4932295;29;20079;-77
2021/10/02 10:14:58;;;;;;;4.32;3.38;;;16.40;99.90;;;;;;4933329;29;20028;-82
2021/10/02 10:17:24;;;;;;;6.15;4.03;;;16.40;99.90;;;;;;4936427;29;20398;-87
2021/10/02 10:20:28;;;;;;;5.85;3.10;;;16.40;99.90;;;;;;4933329;29;20086;-88
2021/10/02 10:23:07;;;;;;;5.68;4.00;;;16.50;99.90;;;;;;4909701;29;20032;-84
2021/10/02 10:25:32;;;;;;;5.15;3.47;;;16.50;99.90;;;;;;4917215;29;20535;-83
2021/10/02 10:28:07;;;;;;;4.70;3.45;;;16.50;99.90;;;;;;4933928;29;20040;-79
2021/10/02 10:30:36;;;;;;;7.30;3.50;;;16.40;99.90;;;;;;4932312;29;20277;-78
2021/10/02 10:33:06;;;;;;;5.50;3.40;;;16.60;99.90;;;;;;4933739;29;20079;-83
2021/10/02 10:35:36;;;;;;;4.97;3.45;;;16.70;99.90;;;;;;4934250;29;20114;-86
2021/10/02 10:38:06;;;;;;;4.45;2.90;;;16.70;99.90;;;;;;4933272;29;20023;-83
2021/10/02 10:40:32;;;;;;;4.70;3.10;;;16.80;99.90;;;;;;4918080;29;20103;-82
2021/10/02 10:42:57;;;;;;;3.95;2.90;;;16.80;99.90;;;;;;4933661;29;20074;-80
2021/10/02 10:45:24;;;;;;;3.15;2.72;;;16.80;99.90;;;;;;4933719;29;20488;-78
2021/10/02 10:47:50;;;;;;;3.92;2.92;;;16.80;99.90;;;;;;4916191;29;20051;-79
2021/10/02 10:50:16;;;;;;;2.92;2.63;;;16.80;99.90;;;;;;4919425;29;20484;-77
2021/10/02 10:52:43;;;;;;;4.68;2.60;;;16.80;99.90;;;;;;4933708;29;20031;-85
2021/10/02 10:55:13;;;;;;;3.00;2.50;;;16.90;99.90;;;;;;4931647;29;20444;-80
2021/10/02 10:57:45;;;;;;;4.03;2.50;;;17.00;99.90;;;;;;4935844;29;20404;-82
2021/10/02 11:00:21;;;;;;;3.47;2.50;;;17.00;99.90;;;;;;4932810;29;20469;-79
2021/10/02 11:02:55;;;;;;;3.97;2.30;;;17.10;99.90;;;;;;4932594;29;20036;-82
2021/10/02 11:05:35;;;;;;;3.10;2.53;;;17.20;99.90;;;;;;4933701;29;20024;-87
2021/10/02 11:08:22;;;;;;;2.88;2.13;;;17.30;99.90;;;;;;4929078;29;20496;-86
2021/10/02 11:10:53;;;;;;;2.63;2.00;;;17.40;99.90;;;;;;4933793;29;20039;-83
2021/10/02 11:13:40;;;;;;;3.13;2.05;;;17.50;99.90;;;;;;4933467;29;20020;-86
2021/10/02 11:16:40;;;;;;;3.28;1.95;;;17.50;99.90;;;;;;4929137;29;20035;-86
2021/10/02 11:19:27;;;;;;;5.40;2.13;;;17.50;99.90;;;;;;4912281;29;20496;-86
2021/10/02 11:22:01;;;;;;;4.60;2.20;;;17.40;99.90;;;;;;4932969;29;20061;-86
2021/10/02 11:24:38;;;;;;;2.45;1.73;;;17.40;99.90;;;;;;4933889;29;20047;-86
2021/10/02 11:27:04;;;;;;;3.38;2.10;;;17.40;99.90;;;;;;4931767;29;20577;-87
2021/10/02 11:29:32;;;;;;;3.70;2.03;;;17.40;99.90;;;;;;4932547;29;20551;-88
2021/10/02 11:32:17;;;;;;;1.90;1.67;;;17.40;99.90;;;;;;4932510;29;20097;-87
2021/10/02 11:35:07;;;;;;;2.03;1.65;;;17.40;99.90;;;;;;4933990;29;20031;-87
2021/10/02 11:38:17;;;;;;;2.90;2.05;;;17.30;99.90;;;;;;4934887;29;20058;-86
2021/10/02 11:40:45;;;;;;;2.28;1.52;;;17.30;99.90;;;;;;4932481;29;20036;-82
2021/10/02 11:43:17;;;;;;;1.95;1.67;;;17.30;99.90;;;;;;4930434;29;20022;-84
2021/10/02 11:45:45;;;;;;;2.83;1.80;;;17.30;99.90;;;;;;4934652;29;20028;-84
2021/10/02 11:48:15;;;;;;;3.05;1.55;;;17.40;99.90;;;;;;4931976;29;20445;-84
2021/10/02 11:50:42;;;;;;;2.10;1.80;;;17.50;99.90;;;;;;4934587;29;20075;-84
2021/10/02 11:53:11;;;;;;;1.73;1.40;;;17.60;99.90;;;;;;4934329;29;20024;-84
2021/10/02 11:55:43;;;;;;;2.75;1.85;;;17.70;99.90;;;;;;4933761;29;20028;-84
2021/10/02 11:58:11;;;;;;;3.15;2.38;;;17.80;99.90;;;;;;4934152;29;20032;-84
2021/10/02 12:00:47;;;;;;;2.80;1.80;;;18.00;99.90;;;;;;4933203;29;20031;-84
2021/10/02 12:03:16;;;;;;;2.40;1.63;;;18.00;99.90;;;;;;4932137;29;20042;-84
2021/10/02 12:05:43;;;;;;;4.95;1.60;;;18.10;99.90;;;;;;4933067;29;20458;-84
2021/10/02 12:08:10;;;;;;;2.75;1.65;;;18.10;99.90;;;;;;4932724;29;20127;-84
2021/10/02 12:11:12;;;;;;;2.90;1.80;;;18.00;99.90;;;;;;4932616;29;20499;-84
2021/10/02 12:13:39;;;;;;;1.50;1.40;;;17.90;99.90;;;;;;4932283;29;20028;-83
2021/10/02 12:16:08;;;;;;;5.07;2.30;;;18.00;99.90;;;;;;4932992;29;20061;-84
2021/10/02 12:18:45;;;;;;;3.65;1.63;;;18.00;99.90;;;;;;4934170;29;20032;-83
2021/10/02 12:21:23;;;;;;;4.53;2.20;;;18.10;99.90;;;;;;4932821;29;20417;-85
2021/10/02 12:23:59;;;;;;;4.35;2.20;;;18.20;99.90;;;;;;4933451;29;20039;-84
2021/10/02 12:26:26;;;;;;;3.17;1.95;;;18.30;99.90;;;;;;4934490;29;20106;-85
2021/10/02 12:29:03;;;;;;;3.55;1.77;;;18.30;99.90;;;;;;4933878;29;20116;-84
2021/10/02 12:31:47;;;;;;;2.20;1.80;;;18.40;99.90;;;;;;4933713;29;20044;-85
2021/10/02 12:34:15;;;;;;;2.58;1.70;;;18.40;99.90;;;;;;4932706;29;20090;-83
2021/10/02 12:36:43;;;;;;;3.55;1.77;;;18.30;99.90;;;;;;4934053;29;20036;-88
2021/10/02 12:39:10;;;;;;;2.70;1.50;;;18.20;99.90;;;;;;4933895;29;20070;-83
2021/10/02 12:41:43;;;;;;;4.50;1.83;;;18.10;99.90;;;;;;4936604;29;20027;-81
2021/10/02 12:44:27;;;;;;;2.45;1.90;;;18.10;99.90;;;;;;4936814;29;20106;-82
2021/10/02 12:46:55;;;;;;;1.65;1.40;;;18.00;99.90;;;;;;4937559;29;20031;-84
2021/10/02 12:49:22;;;;;;;2.13;1.58;;;18.00;99.90;;;;;;4936427;29;20127;-83
2021/10/02 12:51:48;;;;;;;4.00;1.88;;;18.00;99.90;;;;;;4935551;29;20086;-84
2021/10/02 12:54:16;;;;;;;1.80;1.52;;;18.00;99.90;;;;;;4937437;29;20484;-83
2021/10/02 12:57:03;;;;;;;2.78;1.63;;;18.00;99.90;;;;;;4936103;29;20098;-82
2021/10/02 12:59:55;;;;;;;1.95;1.55;;;18.00;99.90;;;;;;4936796;29;20024;-85
2021/10/02 13:02:21;;;;;;;1.48;1.30;;;17.90;99.90;;;;;;4936382;29;20055;-85
2021/10/02 13:04:48;;;;;;;2.85;1.50;;;17.90;99.90;;;;;;4936083;29;20107;-85
2021/10/02 13:07:22;;;;;;;1.42;1.20;;;17.80;99.90;;;;;;4935069;29;20039;-84
2021/10/02 13:10:00;;;;;;;1.88;1.40;;;17.80;99.90;;;;;;4937070;29;20034;-85
2021/10/02 13:12:33;;;;;;;2.75;1.42;;;17.80;99.90;;;;;;4936911;29;20039;-85
2021/10/02 13:15:00;;;;;;;1.95;1.58;;;17.80;99.90;;;;;;4935561;29;20022;-85
2021/10/02 13:17:25;;;;;;;1.30;1.20;;;17.80;99.90;;;;;;4936949;29;20083;-85
2021/10/02 13:20:08;;;;;;;3.78;1.50;;;17.80;99.90;;;;;;4935118;29;20051;-84
2021/10/02 13:22:47;;;;;;;1.50;1.40;;;17.90;99.90;;;;;;4936004;29;20059;-86
2021/10/02 13:25:20;;;;;;;1.15;1.15;;;17.90;99.90;;;;;;4919584;29;20059;-84
2021/10/02 13:27:47;;;;;;;1.50;1.40;;;17.90;99.90;;;;;;4934884;29;20032;-84
2021/10/02 13:30:27;;;;;;;4.07;1.30;;;17.90;99.90;;;;;;4935231;29;20028;-84
2021/10/02 13:33:07;;;;;;;1.48;1.38;;;17.90;99.90;;;;;;4935431;29;20093;-84
2021/10/02 13:35:36;;;;;;;1.35;1.25;;;17.80;99.90;;;;;;4935195;29;20032;-84
2021/10/02 13:38:04;;;;;;;2.35;1.42;;;17.80;99.90;;;;;;4936565;29;20084;-84
2021/10/02 13:40:33;;;;;;;1.52;1.10;;;17.80;99.90;;;;;;4936180;29;20504;-85
2021/10/02 13:43:01;;;;;;;1.48;1.20;;;17.80;99.90;;;;;;4936301;29;20031;-85
2021/10/02 13:45:31;;;;;;;3.08;1.58;;;17.80;99.90;;;;;;4935526;29;20103;-84
2021/10/02 13:48:00;;;;;;;1.92;1.48;;;17.80;99.90;;;;;;4934032;29;20043;-85
2021/10/02 13:50:26;;;;;;;4.07;1.30;;;17.80;99.90;;;;;;4934545;29;20535;-85
2021/10/02 13:52:52;;;;;;;2.53;1.25;;;17.80;99.90;;;;;;4936353;29;20035;-85
2021/10/02 13:55:17;;;;;;;1.38;1.27;;;17.80;99.90;;;;;;4934203;29;20026;-86
2021/10/02 13:57:43;;;;;;;1.35;1.20;;;17.80;99.90;;;;;;4936314;29;20100;-84
2021/10/02 14:00:09;;;;;;;2.92;1.27;;;17.80;99.90;;;;;;4934756;29;20500;-84
2021/10/02 14:02:35;;;;;;;1.58;1.20;;;17.80;99.90;;;;;;4935220;29;20063;-85
2021/10/02 14:05:00;;;;;;;3.45;1.52;;;17.80;99.90;;;;;;4934589;29;20055;-84
2021/10/02 14:07:26;;;;;;;2.15;1.33;;;17.80;99.90;;;;;;4935041;29;20126;-84
2021/10/02 14:09:51;;;;;;;1.90;1.40;;;17.80;99.90;;;;;;4935367;29;20055;-83
2021/10/02 14:12:17;;;;;;;1.70;1.30;;;17.70;99.90;;;;;;4935938;29;20111;-83
2021/10/02 14:14:43;;;;;;;1.23;1.13;;;17.70;99.90;;;;;;4936149;29;20035;-83
2021/10/02 14:17:09;;;;;;;1.65;1.42;;;17.70;99.90;;;;;;4934870;29;20091;-84
2021/10/02 14:19:35;;;;;;;2.03;1.65;;;17.70;99.90;;;;;;4934767;29;20547;-85
2021/10/02 14:22:02;;;;;;;1.75;1.35;;;17.70;99.90;;;;;;4932820;29;20591;-80
2021/10/02 14:24:27;;;;;;;1.42;1.23;;;17.60;99.90;;;;;;4925754;29;20083;-78
2021/10/02 14:26:53;;;;;;;2.30;1.33;;;17.60;99.90;;;;;;4940004;29;20031;-80
2021/10/02 14:29:19;;;;;;;2.55;1.65;;;17.60;99.90;;;;;;4935342;29;20062;-80
2021/10/02 14:31:45;;;;;;;1.60;1.50;;;17.60;99.90;;;;;;4933790;29;20074;-79
2021/10/02 14:34:12;;;;;;;1.48;1.35;;;17.60;99.90;;;;;;4934132;29;20032;-80
2021/10/02 14:36:38;;;;;;;2.13;1.33;;;17.70;99.90;;;;;;4935063;29;20027;-79
2021/10/02 14:39:06;;;;;;;1.55;1.35;;;17.70;99.90;;;;;;4933512;29;20032;-81